Time;durP1;ratioP1;P1;durP2;ratioP2;P2;SDS_P1;SDS_P2;PMS_P1;PMS_P2;Temp;Humidity;BMP_temperature;BMP_pressure;BME280_temperature;BME280_humidity;BME280_pressure;Samples;Min_cycle;Max_cycle;Signal;HPM_P1;HPM_P2
2022/11/13 00:01:42;;;;;;;1.20;1.10;;;20.80;70.10;;;;;;6227087;28;20052;-40
2022/11/13 00:05:02;;;;;;;1.35;1.20;;;21.00;70.30;;;;;;6232264;28;20796;-39
2022/11/13 00:08:22;;;;;;;1.30;0.95;;;21.00;70.10;;;;;;6235937;28;20049;-39
2022/11/13 00:11:42;;;;;;;2.25;0.90;;;20.90;70.30;;;;;;6230825;28;20631;-39
2022/11/13 00:15:03;;;;;;;1.10;1.00;;;20.90;70.20;;;;;;6231303;28;20056;-39
2022/11/13 00:18:22;;;;;;;1.15;1.05;;;20.80;70.00;;;;;;6233326;28;20106;-39
2022/11/13 00:21:42;;;;;;;1.30;1.15;;;20.90;70.20;;;;;;6233397;28;20044;-38
2022/11/13 00:25:02;;;;;;;1.10;1.00;;;20.90;70.30;;;;;;6229669;28;20117;-38
2022/11/13 00:28:22;;;;;;;1.30;1.20;;;21.00;70.30;;;;;;6233463;28;21108;-39
2022/11/13 00:31:42;;;;;;;1.02;0.93;;;20.80;70.30;;;;;;6226788;28;20048;-39
2022/11/13 00:35:02;;;;;;;1.02;0.93;;;20.70;70.20;;;;;;6230974;28;20943;-39
2022/11/13 00:38:22;;;;;;;1.10;1.00;;;20.90;70.20;;;;;;6235352;28;20045;-39
2022/11/13 00:41:42;;;;;;;1.13;1.00;;;20.80;70.00;;;;;;6234663;28;21027;-39
2022/11/13 00:45:02;;;;;;;1.27;1.10;;;20.90;70.30;;;;;;6229673;28;20091;-39
2022/11/13 00:48:23;;;;;;;2.03;1.67;;;20.90;70.00;;;;;;6229974;28;20149;-38
2022/11/13 00:51:42;;;;;;;1.38;1.17;;;21.30;70.50;;;;;;6229425;28;20047;-39
2022/11/13 00:55:02;;;;;;;1.50;1.25;;;20.90;70.20;;;;;;6232186;28;20111;-38
2022/11/13 00:58:22;;;;;;;1.23;1.13;;;20.90;70.10;;;;;;6232305;28;20523;-38
2022/11/13 01:01:42;;;;;;;1.45;1.17;;;20.80;69.90;;;;;;6233937;28;20151;-39
2022/11/13 01:05:03;;;;;;;1.40;1.08;;;20.80;70.10;;;;;;6241729;28;20662;-39
2022/11/13 01:08:22;;;;;;;1.40;1.30;;;20.90;70.10;;;;;;6225739;28;20151;-39
2022/11/13 01:11:42;;;;;;;1.45;1.10;;;21.00;70.20;;;;;;6242009;28;20056;-39
2022/11/13 01:15:02;;;;;;;1.67;1.20;;;20.60;70.10;;;;;;6243626;28;20047;-39
2022/11/13 01:18:22;;;;;;;1.00;0.90;;;21.00;70.10;;;;;;6239655;28;20050;-38
2022/11/13 01:21:42;;;;;;;1.40;1.30;;;20.90;69.90;;;;;;6240199;28;20816;-39
2022/11/13 01:25:02;;;;;;;1.30;1.20;;;21.10;70.20;;;;;;6240430;28;20080;-39
2022/11/13 01:28:22;;;;;;;1.42;1.33;;;20.90;70.00;;;;;;6241170;28;20045;-38
2022/11/13 01:31:42;;;;;;;1.58;1.38;;;20.50;69.70;;;;;;6238884;28;20045;-38
2022/11/13 01:35:02;;;;;;;1.30;1.20;;;20.90;70.00;;;;;;6241023;28;20072;-38
2022/11/13 01:38:23;;;;;;;1.10;1.00;;;20.90;69.80;;;;;;6224957;28;20044;-38
2022/11/13 01:41:42;;;;;;;1.42;1.23;;;20.70;69.70;;;;;;6235699;28;20350;-39
2022/11/13 01:45:02;;;;;;;1.20;1.10;;;20.60;69.70;;;;;;6236512;28;20083;-39
2022/11/13 01:48:22;;;;;;;1.20;1.10;;;20.90;69.80;;;;;;6238893;28;20059;-38
2022/11/13 01:51:47;;;;;;;1.20;1.10;;;20.80;69.60;;;;;;6240620;28;20768;-39
2022/11/13 01:55:07;;;;;;;1.40;1.05;;;20.70;69.30;;;;;;6226052;28;20053;-38
2022/11/13 01:58:22;;;;;;;1.40;1.27;;;20.60;69.40;;;;;;6216912;28;20049;-38
2022/11/13 02:01:42;;;;;;;1.42;1.00;;;20.80;69.50;;;;;;6238342;28;20827;-38
2022/11/13 02:05:02;;;;;;;1.25;1.15;;;21.10;69.70;;;;;;6244225;28;20044;-39
2022/11/13 02:08:22;;;;;;;1.10;0.90;;;20.70;69.20;;;;;;6230065;28;20460;-38
2022/11/13 02:11:43;;;;;;;1.50;1.20;;;20.70;69.30;;;;;;6243183;28;20036;-39
2022/11/13 02:15:06;;;;;;;1.42;1.20;;;20.80;69.20;;;;;;6246178;28;20052;-37
2022/11/13 02:18:25;;;;;;;1.60;1.20;;;20.80;69.20;;;;;;6219473;28;20045;-39
2022/11/13 02:21:52;;;;;;;1.15;1.00;;;20.60;68.80;;;;;;6242930;28;20055;-38
2022/11/13 02:25:13;;;;;;;1.30;1.17;;;20.60;68.90;;;;;;6225919;28;20044;-38
2022/11/13 02:28:32;;;;;;;1.10;1.00;;;20.80;69.00;;;;;;6226249;28;20156;-39
2022/11/13 02:31:52;;;;;;;1.00;0.90;;;21.10;69.20;;;;;;6245463;28;20064;-39
2022/11/13 02:35:14;;;;;;;1.15;1.05;;;20.80;69.10;;;;;;6240922;28;20051;-38
2022/11/13 02:38:34;;;;;;;1.17;1.08;;;20.60;68.70;;;;;;6226941;28;20051;-38
2022/11/13 02:41:53;;;;;;;1.33;1.08;;;20.80;68.60;;;;;;6236904;28;20060;-37
2022/11/13 02:45:12;;;;;;;1.15;1.00;;;20.90;68.60;;;;;;6240493;28;20048;-39
2022/11/13 02:48:32;;;;;;;1.30;1.10;;;20.80;68.70;;;;;;6241290;28;20051;-39
2022/11/13 02:51:52;;;;;;;1.30;1.08;;;20.70;68.60;;;;;;6241540;28;20052;-38
2022/11/13 02:55:12;;;;;;;1.42;1.08;;;21.00;68.80;;;;;;6240487;28;20083;-38
2022/11/13 02:58:33;;;;;;;1.02;0.93;;;20.70;68.50;;;;;;6241519;28;20040;-39
2022/11/13 03:01:52;;;;;;;1.60;0.93;;;20.70;67.90;;;;;;6239440;28;21024;-38
2022/11/13 03:05:12;;;;;;;1.17;1.05;;;20.40;68.20;;;;;;6241824;28;20087;-39
2022/11/13 03:08:32;;;;;;;1.13;1.02;;;20.60;68.30;;;;;;6241908;28;20155;-38
2022/11/13 03:11:52;;;;;;;1.23;1.13;;;20.50;68.20;;;;;;6238643;28;20052;-38
2022/11/13 03:15:13;;;;;;;0.90;0.90;;;20.80;68.40;;;;;;6239891;28;20041;-39
2022/11/13 03:18:32;;;;;;;1.15;0.90;;;20.70;67.90;;;;;;6240979;28;20044;-38
2022/11/13 03:21:52;;;;;;;1.10;1.00;;;20.80;68.20;;;;;;6235902;28;20143;-38
2022/11/13 03:25:12;;;;;;;0.90;0.80;;;20.70;68.00;;;;;;6221195;28;20049;-38
2022/11/13 03:28:32;;;;;;;1.00;0.80;;;20.90;68.20;;;;;;6238663;28;20048;-38
2022/11/13 03:31:53;;;;;;;1.20;0.95;;;20.90;68.00;;;;;;6220255;28;20484;-38
2022/11/13 03:35:12;;;;;;;1.15;1.05;;;20.70;67.50;;;;;;6238698;28;20335;-38
2022/11/13 03:38:32;;;;;;;1.10;1.00;;;20.90;68.00;;;;;;6238222;28;20358;-39
2022/11/13 03:41:52;;;;;;;1.00;0.88;;;20.80;67.90;;;;;;6222218;28;20951;-38
2022/11/13 03:45:12;;;;;;;1.25;1.08;;;20.80;67.90;;;;;;6236894;28;20376;-38
2022/11/13 03:48:33;;;;;;;1.00;0.90;;;21.00;67.90;;;;;;6238598;28;20416;-38
2022/11/13 03:51:52;;;;;;;0.65;0.65;;;20.70;67.30;;;;;;6236172;28;20202;-38
2022/11/13 03:55:12;;;;;;;1.45;1.25;;;20.80;67.70;;;;;;6238546;28;20238;-38
2022/11/13 03:58:32;;;;;;;1.30;1.20;;;20.60;67.50;;;;;;6229728;28;20439;-38
2022/11/13 04:01:52;;;;;;;1.42;1.13;;;20.80;67.60;;;;;;6232546;28;20049;-38
2022/11/13 04:05:13;;;;;;;1.13;0.90;;;20.80;67.50;;;;;;6235957;28;20060;-38
2022/11/13 04:08:32;;;;;;;1.15;1.02;;;20.70;67.30;;;;;;6235064;28;20048;-38
2022/11/13 04:11:52;;;;;;;1.13;1.00;;;20.90;67.30;;;;;;6236050;28;20400;-38
2022/11/13 04:15:12;;;;;;;1.23;0.95;;;20.70;67.00;;;;;;6235104;28;20827;-39
2022/11/13 04:18:32;;;;;;;1.05;0.85;;;20.80;67.00;;;;;;6221004;28;20052;-38
2022/11/13 04:21:53;;;;;;;1.13;1.00;;;20.70;67.00;;;;;;6234553;28;20088;-38
2022/11/13 04:25:12;;;;;;;1.03;0.93;;;20.70;66.90;;;;;;6234489;28;20428;-38
2022/11/13 04:28:32;;;;;;;1.40;1.20;;;20.70;66.80;;;;;;6234730;28;20087;-38
2022/11/13 04:31:52;;;;;;;1.00;0.90;;;20.70;66.80;;;;;;6234915;28;20827;-38
2022/11/13 04:35:12;;;;;;;0.95;0.93;;;20.60;66.40;;;;;;6235671;28;20048;-38
2022/11/13 04:38:33;;;;;;;1.58;1.10;;;20.60;67.30;;;;;;6238511;28;20052;-38
2022/11/13 04:45:25;;;;;;;1.02;0.88;;;20.90;66.50;;;;;;6239178;28;20052;-38
2022/11/13 04:48:42;;;;;;;1.13;1.02;;;20.60;66.30;;;;;;6237403;28;20139;-38
2022/11/13 04:52:02;;;;;;;1.10;0.95;;;20.60;66.30;;;;;;6237338;28;20159;-38
2022/11/13 04:55:23;;;;;;;0.93;0.80;;;20.70;66.20;;;;;;6236605;28;20052;-40
2022/11/13 04:58:42;;;;;;;1.00;0.85;;;20.80;66.20;;;;;;6233001;28;20055;-38
2022/11/13 05:02:02;;;;;;;0.75;0.75;;;20.40;66.00;;;;;;6239577;28;20371;-38
2022/11/13 05:05:22;;;;;;;1.00;0.90;;;20.40;65.80;;;;;;6235828;28;20080;-38
2022/11/13 05:08:42;;;;;;;1.10;1.00;;;20.70;65.90;;;;;;6236661;28;20484;-38
2022/11/13 05:12:06;;;;;;;1.40;1.10;;;20.70;66.00;;;;;;6231558;28;20087;-40
2022/11/13 05:15:22;;;;;;;1.25;1.05;;;20.80;65.50;;;;;;6236284;28;20491;-39
2022/11/13 05:18:42;;;;;;;1.30;0.90;;;20.70;65.90;;;;;;6232712;28;20297;-38
2022/11/13 05:22:02;;;;;;;1.15;1.00;;;20.90;65.80;;;;;;6230369;28;20927;-38
2022/11/13 05:25:22;;;;;;;1.23;0.90;;;20.60;65.50;;;;;;6227803;28;20048;-39
2022/11/13 05:28:43;;;;;;;1.05;0.82;;;20.60;65.60;;;;;;6228463;28;20044;-38
2022/11/13 05:32:02;;;;;;;0.88;0.80;;;20.80;65.70;;;;;;6229261;28;20423;-38
2022/11/13 05:35:22;;;;;;;1.35;1.00;;;20.60;65.60;;;;;;6233675;28;20321;-38
2022/11/13 05:38:42;;;;;;;1.00;0.90;;;20.60;65.50;;;;;;6233102;28;20760;-38
2022/11/13 05:42:02;;;;;;;1.10;0.98;;;20.80;65.40;;;;;;6231277;28;20048;-38
2022/11/13 05:45:23;;;;;;;1.08;0.98;;;20.60;65.30;;;;;;6235836;28;20056;-39
2022/11/13 05:48:43;;;;;;;1.25;1.10;;;20.60;65.20;;;;;;6237372;28;20369;-37
2022/11/13 05:52:02;;;;;;;1.10;1.00;;;20.90;65.50;;;;;;6211726;28;20294;-38
2022/11/13 05:55:22;;;;;;;1.00;0.90;;;20.50;65.30;;;;;;6236982;28;20060;-38
2022/11/13 05:58:43;;;;;;;1.45;1.00;;;20.80;65.30;;;;;;6234655;28;20047;-39
2022/11/13 06:02:03;;;;;;;0.93;0.68;;;20.60;65.10;;;;;;6217752;28;20221;-38
2022/11/13 06:05:22;;;;;;;0.82;0.82;;;20.80;65.30;;;;;;6234646;28;20056;-38
2022/11/13 06:08:42;;;;;;;1.00;0.90;;;20.70;65.20;;;;;;6234770;28;20119;-38
2022/11/13 06:12:02;;;;;;;0.98;0.90;;;20.60;65.10;;;;;;6215181;28;20688;-38
2022/11/13 06:15:22;;;;;;;0.80;0.80;;;20.70;65.10;;;;;;6230905;28;20111;-38
2022/11/13 06:18:44;;;;;;;1.02;0.70;;;20.90;65.30;;;;;;6235074;28;20311;-38
2022/11/13 06:22:02;;;;;;;1.20;1.00;;;20.80;64.90;;;;;;6233460;28;20421;-38
2022/11/13 06:25:22;;;;;;;0.85;0.85;;;20.70;65.10;;;;;;6233174;28;20080;-38
2022/11/13 06:28:42;;;;;;;1.15;0.93;;;20.50;65.00;;;;;;6236672;28;20424;-38
2022/11/13 06:32:02;;;;;;;0.82;0.82;;;20.70;65.10;;;;;;6233698;28;20364;-38
2022/11/13 06:35:23;;;;;;;1.00;0.90;;;20.40;64.80;;;;;;6235827;28;20992;-38
2022/11/13 06:38:43;;;;;;;1.10;0.90;;;20.30;64.70;;;;;;6224982;28;20523;-39
2022/11/13 06:42:02;;;;;;;0.93;0.90;;;20.80;65.00;;;;;;6218328;28;20324;-38
2022/11/13 06:45:22;;;;;;;0.98;0.88;;;20.90;65.10;;;;;;6230644;28;20745;-38
2022/11/13 06:48:42;;;;;;;1.13;0.82;;;20.60;64.90;;;;;;6231196;28;20307;-38
2022/11/13 06:52:03;;;;;;;1.20;0.93;;;20.60;64.90;;;;;;6215574;28;20885;-38
2022/11/13 06:55:22;;;;;;;1.80;0.90;;;20.80;64.90;;;;;;6228105;28;20404;-38
2022/11/13 06:58:42;;;;;;;1.13;0.93;;;20.80;65.10;;;;;;6231767;28;20227;-38
2022/11/13 07:02:02;;;;;;;1.00;0.90;;;20.70;65.10;;;;;;6227608;28;20084;-38
2022/11/13 07:05:22;;;;;;;0.80;0.80;;;20.30;64.70;;;;;;6229364;28;20067;-38
2022/11/13 07:08:43;;;;;;;1.00;0.90;;;20.80;65.50;;;;;;6232222;28;20518;-38
2022/11/13 07:12:02;;;;;;;0.95;0.90;;;20.50;64.90;;;;;;6216921;28;20135;-38
2022/11/13 07:15:22;;;;;;;1.23;0.95;;;20.30;64.60;;;;;;6226892;28;20453;-38
2022/11/13 07:18:42;;;;;;;0.70;0.70;;;20.50;65.40;;;;;;6228610;28;20059;-38
2022/11/13 07:22:02;;;;;;;0.70;0.70;;;20.80;65.50;;;;;;6226789;28;20049;-38
2022/11/13 07:25:23;;;;;;;0.85;0.80;;;20.40;65.40;;;;;;6227066;28;20084;-38
2022/11/13 07:28:42;;;;;;;0.85;0.80;;;20.90;65.40;;;;;;6230689;28;20595;-38
2022/11/13 07:32:02;;;;;;;1.00;0.90;;;20.70;65.80;;;;;;6232715;28;20925;-38
2022/11/13 07:35:22;;;;;;;1.00;0.90;;;20.70;65.60;;;;;;6233126;28;20375;-38
2022/11/13 07:38:42;;;;;;;0.75;0.75;;;20.60;65.70;;;;;;6227289;28;20738;-38
2022/11/13 07:42:03;;;;;;;1.10;0.93;;;20.40;65.50;;;;;;6228466;28;20333;-38
2022/11/13 07:45:22;;;;;;;0.80;0.80;;;20.50;65.60;;;;;;6234132;28;20308;-39
2022/11/13 07:48:42;;;;;;;1.10;1.00;;;20.60;65.70;;;;;;6235814;28;20135;-37
2022/11/13 07:52:02;;;;;;;0.77;0.70;;;20.60;65.90;;;;;;6229097;28;20041;-38
2022/11/13 07:55:22;;;;;;;0.90;0.90;;;20.60;65.90;;;;;;6231411;28;20079;-39
2022/11/13 07:58:43;;;;;;;0.90;0.80;;;20.50;65.90;;;;;;6231617;28;20055;-38
2022/11/13 08:02:02;;;;;;;0.80;0.80;;;20.60;65.60;;;;;;6229031;28;20048;-38
2022/11/13 08:05:22;;;;;;;0.80;0.80;;;20.90;66.10;;;;;;6233939;28;20106;-39
2022/11/13 08:08:42;;;;;;;0.93;0.90;;;20.90;66.20;;;;;;6233536;28;20335;-39
2022/11/13 08:12:02;;;;;;;0.80;0.77;;;20.60;66.00;;;;;;6228824;28;20076;-38
2022/11/13 08:15:23;;;;;;;0.80;0.80;;;20.40;65.90;;;;;;6231070;28;20052;-38
2022/11/13 08:18:42;;;;;;;0.80;0.80;;;20.80;66.10;;;;;;6225186;28;20048;-38
2022/11/13 08:22:02;;;;;;;0.75;0.70;;;20.80;66.00;;;;;;6227003;28;20044;-38
2022/11/13 08:25:22;;;;;;;1.05;0.85;;;20.60;66.10;;;;;;6228140;28;20048;-38
2022/11/13 08:28:42;;;;;;;0.80;0.80;;;20.50;66.00;;;;;;6212489;28;20530;-38
2022/11/13 08:32:03;;;;;;;1.02;0.80;;;20.80;66.20;;;;;;6228861;28;20200;-39
2022/11/13 08:35:22;;;;;;;1.08;0.98;;;20.70;66.10;;;;;;6210568;28;20063;-38
2022/11/13 08:38:42;;;;;;;1.05;0.80;;;20.50;66.00;;;;;;6228342;28;20060;-38
2022/11/13 08:42:03;;;;;;;0.77;0.70;;;20.70;66.30;;;;;;6227229;28;20316;-38
2022/11/13 08:45:22;;;;;;;1.20;1.00;;;20.60;66.10;;;;;;6229365;28;20588;-38
2022/11/13 08:48:43;;;;;;;0.80;0.80;;;20.50;66.30;;;;;;6227707;28;20615;-38
2022/11/13 08:52:02;;;;;;;0.80;0.77;;;20.60;66.50;;;;;;6225747;28;20775;-38
2022/11/13 08:55:23;;;;;;;0.75;0.73;;;20.80;66.40;;;;;;6228032;28;20075;-38
2022/11/13 08:58:42;;;;;;;1.10;0.90;;;20.50;66.20;;;;;;6226845;28;20083;-38
2022/11/13 09:02:02;;;;;;;1.00;0.85;;;20.70;66.40;;;;;;6226252;28;20772;-38
2022/11/13 09:05:24;;;;;;;1.20;1.10;;;20.50;66.20;;;;;;6226552;28;20442;-38
2022/11/13 09:08:42;;;;;;;1.20;1.10;;;20.90;66.40;;;;;;6209104;28;20415;-39
2022/11/13 09:12:02;;;;;;;1.08;1.00;;;20.70;66.60;;;;;;6229916;28;20260;-38
2022/11/13 09:15:22;;;;;;;1.00;0.90;;;20.70;66.60;;;;;;6224892;28;20248;-38
2022/11/13 09:18:42;;;;;;;1.10;0.93;;;20.70;66.20;;;;;;6225816;28;20140;-38
2022/11/13 09:22:03;;;;;;;1.10;1.00;;;20.50;66.70;;;;;;6226030;28;20110;-38
2022/11/13 09:25:22;;;;;;;0.73;0.68;;;20.70;66.90;;;;;;6227968;28;20318;-38
2022/11/13 09:28:42;;;;;;;1.00;0.90;;;20.40;66.60;;;;;;6224603;28;20462;-39
2022/11/13 09:32:02;;;;;;;1.05;0.98;;;20.80;66.60;;;;;;6226030;28;20048;-38
2022/11/13 09:35:33;;;;;;;0.98;0.90;;;20.80;66.60;;;;;;6228629;28;20591;-38
2022/11/13 09:38:53;;;;;;;0.80;0.75;;;20.40;66.60;;;;;;6206745;28;20443;-38
2022/11/13 09:42:18;;;;;;;1.33;0.90;;;20.40;66.80;;;;;;6230024;28;20076;-38
2022/11/13 09:45:33;;;;;;;1.00;0.88;;;20.60;66.80;;;;;;6211486;28;20627;-38
2022/11/13 09:48:56;;;;;;;1.40;1.15;;;20.50;66.90;;;;;;6226961;28;20044;-38
2022/11/13 09:52:16;;;;;;;1.30;1.20;;;20.40;66.70;;;;;;6226910;28;20047;-38
2022/11/13 09:55:44;;;;;;;1.77;1.52;;;21.00;67.10;;;;;;6227733;28;20052;-38
2022/11/13 09:59:15;;;;;;;1.75;1.48;;;20.80;67.10;;;;;;6215943;28;20407;-38
2022/11/13 10:02:42;;;;;;;1.58;1.30;;;20.70;67.70;;;;;;6227621;28;20356;-37
2022/11/13 10:06:13;;;;;;;2.20;1.75;;;20.80;67.10;;;;;;6222855;28;20056;-38
2022/11/13 10:09:39;;;;;;;1.60;1.50;;;20.90;67.30;;;;;;6229356;28;20132;-38
2022/11/13 10:12:55;;;;;;;1.95;1.73;;;20.90;67.40;;;;;;6228191;28;20802;-38
2022/11/13 10:16:24;;;;;;;1.92;1.73;;;20.90;67.50;;;;;;6211724;28;20103;-38
2022/11/13 10:19:55;;;;;;;1.48;1.30;;;20.70;67.50;;;;;;6231364;28;20440;-38
2022/11/13 10:23:16;;;;;;;1.33;1.23;;;21.00;67.60;;;;;;6214768;28;20228;-38
2022/11/13 10:26:34;;;;;;;1.55;1.45;;;20.80;67.60;;;;;;6229652;28;21044;-38
2022/11/13 10:29:53;;;;;;;1.67;1.38;;;20.80;67.70;;;;;;6229845;28;20292;-38
2022/11/13 10:33:16;;;;;;;1.30;1.20;;;21.20;67.90;;;;;;6230531;28;20151;-38
2022/11/13 10:36:38;;;;;;;1.30;1.20;;;20.50;67.50;;;;;;6208735;28;20475;-38
2022/11/13 10:39:52;;;;;;;1.50;1.35;;;21.00;67.90;;;;;;6216043;28;20053;-39
2022/11/13 10:43:17;;;;;;;1.30;1.20;;;20.90;68.00;;;;;;6224992;28;20721;-38
2022/11/13 10:46:33;;;;;;;1.30;1.20;;;20.80;67.90;;;;;;6202150;28;20055;-38
2022/11/13 10:49:54;;;;;;;1.35;1.25;;;20.70;68.00;;;;;;6230079;28;20181;-39
2022/11/13 10:53:15;;;;;;;1.45;1.30;;;21.00;68.30;;;;;;6215233;28;20060;-38
2022/11/13 10:56:34;;;;;;;1.30;1.20;;;20.60;67.70;;;;;;6231260;28;20111;-38
2022/11/13 10:59:52;;;;;;;1.20;1.10;;;20.80;68.30;;;;;;6216547;28;20706;-38
2022/11/13 11:03:15;;;;;;;1.23;1.13;;;21.00;68.70;;;;;;6230457;28;20101;-38
2022/11/13 11:06:34;;;;;;;1.30;1.20;;;21.00;68.50;;;;;;6217575;28;20448;-38
2022/11/13 11:10:30;;;;;;;1.23;1.08;;;20.70;68.40;;;;;;6207636;28;20221;-38
2022/11/13 11:13:43;;;;;;;1.30;1.20;;;20.80;68.70;;;;;;6210452;28;20054;-38
2022/11/13 11:17:04;;;;;;;1.20;1.10;;;20.90;68.80;;;;;;6208242;28;20053;-38
2022/11/13 11:20:39;;;;;;;1.20;1.02;;;21.10;69.00;;;;;;6213845;28;20072;-38
2022/11/13 11:23:58;;;;;;;1.70;1.30;;;21.00;68.80;;;;;;6215081;28;20296;-38
2022/11/13 11:27:18;;;;;;;1.17;1.02;;;21.00;68.90;;;;;;6230323;28;20549;-38
2022/11/13 11:30:38;;;;;;;1.25;1.15;;;21.00;69.00;;;;;;6233538;28;20327;-38
2022/11/13 11:33:58;;;;;;;0.90;0.90;;;20.90;69.00;;;;;;6233314;28;20191;-38
2022/11/13 11:37:15;;;;;;;1.08;0.95;;;21.10;69.00;;;;;;6236855;28;20053;-38
2022/11/13 11:40:40;;;;;;;1.17;1.08;;;21.30;69.40;;;;;;6234953;28;20052;-38
2022/11/13 11:44:01;;;;;;;1.33;1.23;;;21.20;69.40;;;;;;6217646;28;20666;-38
2022/11/13 11:47:15;;;;;;;1.20;1.10;;;21.20;69.30;;;;;;6230106;28;20148;-38
2022/11/13 11:50:38;;;;;;;1.33;1.23;;;21.30;69.50;;;;;;6229850;28;20597;-38
2022/11/13 11:54:05;;;;;;;1.00;0.90;;;21.10;69.50;;;;;;6232402;28;20063;-39
2022/11/13 11:57:43;;;;;;;1.02;0.93;;;21.20;69.60;;;;;;6233158;28;20097;-38
2022/11/13 12:01:11;;;;;;;1.13;1.00;;;21.20;69.80;;;;;;6227736;28;20088;-38
2022/11/13 12:04:46;;;;;;;1.20;1.00;;;21.30;69.80;;;;;;6216335;28;20163;-39
2022/11/13 12:08:14;;;;;;;1.10;1.00;;;21.40;69.90;;;;;;6226950;28;20356;-38
2022/11/13 12:11:35;;;;;;;1.08;0.98;;;20.90;69.70;;;;;;6228404;28;20060;-38
2022/11/13 12:15:02;;;;;;;0.98;0.90;;;21.40;70.10;;;;;;6213361;28;20044;-38
2022/11/13 12:18:29;;;;;;;1.20;1.10;;;21.30;70.00;;;;;;6230652;28;20295;-38
2022/11/13 12:21:51;;;;;;;1.02;0.93;;;20.80;69.70;;;;;;6229000;28;20323;-38
2022/11/13 12:25:13;;;;;;;1.35;1.23;;;21.30;70.00;;;;;;6231160;28;20044;-38
2022/11/13 12:28:41;;;;;;;1.73;1.25;;;21.10;70.00;;;;;;6228612;28;20052;-38
2022/11/13 12:32:14;;;;;;;0.98;0.88;;;21.40;70.20;;;;;;6227176;28;20256;-38
2022/11/13 12:35:32;;;;;;;1.23;1.13;;;21.00;69.90;;;;;;6210022;28;20053;-38
2022/11/13 12:39:05;;;;;;;0.95;0.90;;;21.40;70.50;;;;;;6227663;28;20057;-38
2022/11/13 12:42:30;;;;;;;1.02;0.93;;;21.30;70.10;;;;;;6229335;28;20693;-38
2022/11/13 12:45:50;;;;;;;1.20;1.10;;;21.50;71.00;;;;;;6225856;28;20246;-38
2022/11/13 12:49:14;;;;;;;0.77;0.77;;;21.20;70.30;;;;;;6224836;28;20274;-38
2022/11/13 12:52:32;;;;;;;1.30;1.00;;;21.30;70.40;;;;;;6227471;28;20575;-38
2022/11/13 12:55:58;;;;;;;1.20;1.10;;;21.10;70.90;;;;;;6225492;28;20357;-38
2022/11/13 12:59:30;;;;;;;1.23;1.00;;;21.30;70.30;;;;;;6229477;28;20476;-38
2022/11/13 13:03:07;;;;;;;1.05;0.98;;;21.30;70.40;;;;;;6230468;28;20063;-38
2022/11/13 13:06:42;;;;;;;0.80;0.80;;;21.50;70.50;;;;;;6227584;28;20312;-38
2022/11/13 13:10:15;;;;;;;1.05;0.95;;;21.40;70.50;;;;;;6230776;28;20136;-38
2022/11/13 13:13:39;;;;;;;0.80;0.80;;;21.60;70.70;;;;;;6230937;28;20159;-38
2022/11/13 13:17:04;;;;;;;1.48;1.25;;;21.40;70.40;;;;;;6226567;28;20103;-38
2022/11/13 13:20:31;;;;;;;1.30;1.05;;;21.50;70.60;;;;;;6226725;28;20287;-38
2022/11/13 13:23:52;;;;;;;1.10;1.00;;;21.60;70.30;;;;;;6224390;28;20061;-38
2022/11/13 13:27:21;;;;;;;1.20;1.10;;;21.40;70.80;;;;;;6226110;28;20044;-39
2022/11/13 13:30:55;;;;;;;1.27;1.10;;;21.30;70.60;;;;;;6217316;28;20487;-38
2022/11/13 13:34:25;;;;;;;1.17;0.93;;;21.90;70.80;;;;;;6230056;28;20572;-38
2022/11/13 13:37:51;;;;;;;1.02;0.90;;;21.10;70.50;;;;;;6226381;28;20469;-38
2022/11/13 13:41:18;;;;;;;1.27;1.17;;;21.50;70.70;;;;;;6213469;28;20385;-38
2022/11/13 13:44:48;;;;;;;1.52;1.40;;;21.50;70.70;;;;;;6195751;28;20410;-38
2022/11/13 13:48:09;;;;;;;1.20;1.10;;;21.50;70.60;;;;;;6217738;28;20305;-38
2022/11/13 13:51:28;;;;;;;1.50;1.17;;;21.20;70.50;;;;;;6206317;28;20666;-38
2022/11/13 13:54:44;;;;;;;1.10;1.00;;;21.20;70.50;;;;;;6205084;28;20079;-38
2022/11/13 13:58:07;;;;;;;1.15;1.05;;;21.90;71.00;;;;;;6223601;28;20591;-38
2022/11/13 14:01:27;;;;;;;1.17;1.08;;;21.40;70.70;;;;;;6212153;28;20520;-38
2022/11/13 14:04:45;;;;;;;1.05;0.95;;;21.40;70.80;;;;;;6224504;28;20287;-39
2022/11/13 14:08:06;;;;;;;1.10;1.00;;;21.70;70.90;;;;;;6206263;28;20253;-38
2022/11/13 14:11:25;;;;;;;1.30;1.10;;;21.60;70.60;;;;;;6221271;28;20229;-38
2022/11/13 14:14:42;;;;;;;1.10;1.00;;;21.20;70.60;;;;;;6211876;28;20770;-38
2022/11/13 14:18:06;;;;;;;1.30;1.20;;;21.20;70.60;;;;;;6223536;28;20063;-38
2022/11/13 14:21:23;;;;;;;1.20;1.10;;;21.10;70.20;;;;;;6223624;28;20212;-39
2022/11/13 14:24:48;;;;;;;0.80;0.73;;;21.60;70.80;;;;;;6222279;28;20301;-38
2022/11/13 14:28:03;;;;;;;1.30;1.02;;;21.40;70.50;;;;;;6224394;28;20051;-38
2022/11/13 14:31:26;;;;;;;1.13;0.93;;;21.60;70.50;;;;;;6225328;28;20618;-38
2022/11/13 14:34:44;;;;;;;0.93;0.73;;;21.30;70.40;;;;;;6204331;28;20299;-39
2022/11/13 14:38:02;;;;;;;0.90;0.80;;;21.50;70.50;;;;;;6226967;28;20286;-38
2022/11/13 14:41:29;;;;;;;1.30;1.20;;;21.60;70.80;;;;;;6229047;28;20532;-39
2022/11/13 14:44:43;;;;;;;1.30;1.20;;;21.60;70.50;;;;;;6212016;28;20055;-39
2022/11/13 14:48:16;;;;;;;1.20;1.10;;;21.70;70.70;;;;;;6223935;28;20578;-38
2022/11/13 14:51:33;;;;;;;0.80;0.80;;;21.60;70.60;;;;;;6196499;28;20746;-38
2022/11/13 14:55:02;;;;;;;1.08;0.90;;;21.60;70.70;;;;;;6221564;28;20052;-38
2022/11/13 14:58:35;;;;;;;1.00;0.90;;;21.20;70.40;;;;;;6207937;28;20169;-38
2022/11/13 15:01:54;;;;;;;1.38;1.08;;;21.50;70.80;;;;;;6204044;28;20359;-38
2022/11/13 15:05:12;;;;;;;1.08;0.98;;;21.60;70.50;;;;;;6225011;28;20282;-39
2022/11/13 15:08:34;;;;;;;0.98;0.90;;;21.70;70.70;;;;;;6219302;28;20285;-38
2022/11/13 15:11:52;;;;;;;1.00;1.00;;;21.60;70.30;;;;;;6224578;28;20676;-38
2022/11/13 15:15:14;;;;;;;1.00;0.80;;;21.50;70.50;;;;;;6217514;28;20332;-38
2022/11/13 15:18:34;;;;;;;0.85;0.75;;;21.60;70.50;;;;;;6209036;28;20060;-38
2022/11/13 15:21:54;;;;;;;1.27;1.17;;;21.60;70.60;;;;;;6224119;28;20044;-38
2022/11/13 15:25:32;;;;;;;1.15;1.05;;;21.80;70.90;;;;;;6209099;28;20464;-38
2022/11/13 15:28:52;;;;;;;0.82;0.82;;;21.50;70.60;;;;;;6220500;28;20053;-38
2022/11/13 15:32:14;;;;;;;1.13;1.00;;;21.60;70.40;;;;;;6220154;28;20181;-38
2022/11/13 15:35:33;;;;;;;0.90;0.90;;;21.20;70.20;;;;;;6206389;28;20286;-38
2022/11/13 15:38:53;;;;;;;0.93;0.85;;;21.50;70.40;;;;;;6224854;28;20151;-38
2022/11/13 15:42:15;;;;;;;1.10;1.00;;;21.50;70.60;;;;;;6228713;28;20044;-39
2022/11/13 15:45:32;;;;;;;0.93;0.93;;;21.90;70.70;;;;;;6224247;28;20408;-38
2022/11/13 15:48:53;;;;;;;1.20;1.10;;;21.30;70.50;;;;;;6218269;28;20815;-38
2022/11/13 15:52:13;;;;;;;1.25;1.15;;;21.20;70.10;;;;;;6209742;28;20258;-38
2022/11/13 15:55:33;;;;;;;1.23;1.02;;;21.40;70.60;;;;;;6225878;28;20069;-38
2022/11/13 15:58:53;;;;;;;1.00;0.90;;;21.50;70.40;;;;;;6205510;28;20345;-38
2022/11/13 16:02:12;;;;;;;1.20;0.90;;;21.60;70.70;;;;;;6223631;28;20056;-39
2022/11/13 16:05:32;;;;;;;1.27;1.17;;;21.60;70.60;;;;;;6224557;28;20623;-39
2022/11/13 16:08:53;;;;;;;1.27;1.17;;;22.10;70.90;;;;;;6219673;28;20053;-39
2022/11/13 16:12:13;;;;;;;1.00;0.90;;;21.60;70.50;;;;;;6219364;28;20076;-39
2022/11/13 16:15:32;;;;;;;1.30;1.20;;;22.10;70.50;;;;;;6219032;28;20056;-39
2022/11/13 16:18:53;;;;;;;1.10;1.00;;;21.70;70.60;;;;;;6219630;28;20095;-38
2022/11/13 16:22:17;;;;;;;1.40;1.20;;;21.30;70.40;;;;;;6226022;28;20556;-38
2022/11/13 16:25:33;;;;;;;1.58;1.35;;;21.60;70.30;;;;;;6192511;28;20048;-38
2022/11/13 16:28:53;;;;;;;1.30;1.20;;;21.20;70.20;;;;;;6219338;28;20059;-38
2022/11/13 16:32:32;;;;;;;1.55;1.42;;;21.60;70.30;;;;;;6221120;28;20079;-38
2022/11/13 16:35:53;;;;;;;1.48;1.30;;;21.60;70.40;;;;;;6220486;28;20803;-38
2022/11/13 16:39:15;;;;;;;1.45;1.30;;;21.50;70.20;;;;;;6220359;28;20479;-38
2022/11/13 16:42:33;;;;;;;2.25;1.35;;;21.50;70.10;;;;;;6189910;28;20071;-38
2022/11/13 16:45:52;;;;;;;1.58;1.48;;;21.60;70.30;;;;;;6219614;28;20487;-38
2022/11/13 16:49:17;;;;;;;1.90;1.50;;;21.40;70.20;;;;;;6217059;28;20048;-38
2022/11/13 16:52:33;;;;;;;2.17;1.50;;;21.50;69.80;;;;;;6219356;28;20045;-38
2022/11/13 16:55:52;;;;;;;3.42;2.25;;;21.60;70.30;;;;;;6221977;28;20048;-38
2022/11/13 16:59:13;;;;;;;3.15;2.55;;;21.50;70.10;;;;;;6220326;28;20440;-38
2022/11/13 17:02:33;;;;;;;2.58;2.22;;;21.50;70.00;;;;;;6215902;28;20468;-39
2022/11/13 17:05:52;;;;;;;3.10;2.33;;;21.40;69.90;;;;;;6221837;28;20371;-38
2022/11/13 17:09:12;;;;;;;3.05;2.25;;;21.40;70.00;;;;;;6221544;28;20960;-38
2022/11/13 17:12:32;;;;;;;3.00;2.47;;;21.10;69.50;;;;;;6212880;28;20075;-38
2022/11/13 17:15:53;;;;;;;3.28;2.50;;;21.50;69.80;;;;;;6221933;28;20095;-38
2022/11/13 17:19:12;;;;;;;2.10;1.90;;;21.50;69.60;;;;;;6224238;28;20057;-38
2022/11/13 17:22:32;;;;;;;2.40;1.80;;;21.40;69.80;;;;;;6223727;28;20044;-39
2022/11/13 17:25:52;;;;;;;2.35;2.15;;;21.30;69.50;;;;;;6220618;28;20634;-38
2022/11/13 17:29:12;;;;;;;1.77;1.55;;;21.00;69.40;;;;;;6222244;28;20295;-38
2022/11/13 17:32:33;;;;;;;1.40;1.30;;;21.40;69.40;;;;;;6218177;28;20889;-38